sensor_id;sensor_type;location;lat;lon;timestamp;pressure;altitude;pressure_sealevel;temperature;humidity
59493;BME280;45497;43.996;22.876;2022-12-18T00:01:04;102255.09;;;6.07;56.41
59493;BME280;45497;43.996;22.876;2022-12-18T00:03:33;102249.38;;;6.01;55.97
59493;BME280;45497;43.996;22.876;2022-12-18T00:05:59;102246.78;;;5.86;56.21
59493;BME280;45497;43.996;22.876;2022-12-18T00:08:24;102246.97;;;5.83;55.95
59493;BME280;45497;43.996;22.876;2022-12-18T00:10:50;102252.97;;;6.00;56.19
59493;BME280;45497;43.996;22.876;2022-12-18T00:13:15;102264.25;;;6.02;55.47
59493;BME280;45497;43.996;22.876;2022-12-18T00:15:41;102258.50;;;5.95;55.95
59493;BME280;45497;43.996;22.876;2022-12-18T00:18:06;102259.81;;;6.02;55.82
59493;BME280;45497;43.996;22.876;2022-12-18T00:20:36;102265.28;;;5.99;55.85
59493;BME280;45497;43.996;22.876;2022-12-18T00:23:02;102267.84;;;6.13;55.63
59493;BME280;45497;43.996;22.876;2022-12-18T00:25:27;102270.91;;;6.20;55.62
59493;BME280;45497;43.996;22.876;2022-12-18T00:27:52;102275.75;;;6.26;55.33
59493;BME280;45497;43.996;22.876;2022-12-18T00:30:18;102283.34;;;6.31;55.18
59493;BME280;45497;43.996;22.876;2022-12-18T00:32:43;102292.22;;;6.43;55.17
59493;BME280;45497;43.996;22.876;2022-12-18T00:35:09;102304.44;;;6.57;54.94
59493;BME280;45497;43.996;22.876;2022-12-18T00:37:35;102296.44;;;6.45;54.69
59493;BME280;45497;43.996;22.876;2022-12-18T00:40:00;102302.22;;;6.38;54.79
59493;BME280;45497;43.996;22.876;2022-12-18T00:42:26;102315.22;;;6.13;55.63
59493;BME280;45497;43.996;22.876;2022-12-18T00:45:10;102323.81;;;6.03;55.39
59493;BME280;45497;43.996;22.876;2022-12-18T00:47:35;102301.31;;;5.84;56.15
59493;BME280;45497;43.996;22.876;2022-12-18T00:50:01;102312.94;;;5.94;56.43
59493;BME280;45497;43.996;22.876;2022-12-18T00:52:26;102321.66;;;6.09;55.75
59493;BME280;45497;43.996;22.876;2022-12-18T00:54:52;102319.91;;;5.96;56.04
59493;BME280;45497;43.996;22.876;2022-12-18T00:57:17;102322.81;;;5.91;56.55
59493;BME280;45497;43.996;22.876;2022-12-18T00:59:42;102332.88;;;5.99;56.42
59493;BME280;45497;43.996;22.876;2022-12-18T01:02:08;102340.66;;;5.73;56.89
59493;BME280;45497;43.996;22.876;2022-12-18T01:04:34;102344.97;;;5.60;57.08
59493;BME280;45497;43.996;22.876;2022-12-18T01:06:59;102348.22;;;5.78;57.08
59493;BME280;45497;43.996;22.876;2022-12-18T01:09:26;102343.41;;;5.99;56.74
59493;BME280;45497;43.996;22.876;2022-12-18T01:11:51;102327.88;;;5.94;56.81
59493;BME280;45497;43.996;22.876;2022-12-18T01:14:17;102332.03;;;5.98;56.78
59493;BME280;45497;43.996;22.876;2022-12-18T01:16:42;102333.53;;;6.02;56.19
59493;BME280;45497;43.996;22.876;2022-12-18T01:19:08;102327.09;;;6.06;56.31
59493;BME280;45497;43.996;22.876;2022-12-18T01:21:33;102326.50;;;6.16;55.94
59493;BME280;45497;43.996;22.876;2022-12-18T01:23:59;102336.59;;;6.09;56.04
59493;BME280;45497;43.996;22.876;2022-12-18T01:26:25;102339.44;;;6.06;56.57
59493;BME280;45497;43.996;22.876;2022-12-18T01:28:54;102334.94;;;5.93;56.49
59493;BME280;45497;43.996;22.876;2022-12-18T01:31:26;102339.88;;;5.85;56.77
59493;BME280;45497;43.996;22.876;2022-12-18T01:33:52;102334.34;;;5.75;57.35
59493;BME280;45497;43.996;22.876;2022-12-18T01:36:23;102333.06;;;5.96;56.47
59493;BME280;45497;43.996;22.876;2022-12-18T01:38:49;102335.44;;;5.86;56.76
59493;BME280;45497;43.996;22.876;2022-12-18T01:41:17;102338.72;;;5.89;56.62
59493;BME280;45497;43.996;22.876;2022-12-18T01:43:55;102346.94;;;5.70;56.25
59493;BME280;45497;43.996;22.876;2022-12-18T01:46:23;102349.19;;;5.77;56.66
59493;BME280;45497;43.996;22.876;2022-12-18T01:48:52;102350.13;;;5.75;56.50
59493;BME280;45497;43.996;22.876;2022-12-18T01:51:18;102356.91;;;5.65;56.17
59493;BME280;45497;43.996;22.876;2022-12-18T01:53:45;102355.13;;;5.66;56.11
59493;BME280;45497;43.996;22.876;2022-12-18T01:56:14;102362.81;;;5.69;55.88
59493;BME280;45497;43.996;22.876;2022-12-18T01:58:48;102360.09;;;5.70;55.88
59493;BME280;45497;43.996;22.876;2022-12-18T02:01:15;102365.03;;;5.89;55.19
59493;BME280;45497;43.996;22.876;2022-12-18T02:03:42;102364.94;;;5.91;54.86
59493;BME280;45497;43.996;22.876;2022-12-18T02:18:57;102376.66;;;6.14;54.30
59493;BME280;45497;43.996;22.876;2022-12-18T02:24:24;102377.88;;;5.94;54.93
59493;BME280;45497;43.996;22.876;2022-12-18T02:26:59;102371.78;;;5.93;54.89
59493;BME280;45497;43.996;22.876;2022-12-18T02:29:34;102380.72;;;5.91;54.87
59493;BME280;45497;43.996;22.876;2022-12-18T02:32:04;102383.78;;;5.70;55.14
59493;BME280;45497;43.996;22.876;2022-12-18T02:34:33;102376.63;;;5.72;55.60
59493;BME280;45497;43.996;22.876;2022-12-18T02:37:04;102385.38;;;5.73;55.49
59493;BME280;45497;43.996;22.876;2022-12-18T02:39:33;102401.81;;;5.77;55.14
59493;BME280;45497;43.996;22.876;2022-12-18T02:41:59;102396.66;;;5.75;55.11
59493;BME280;45497;43.996;22.876;2022-12-18T02:44:27;102398.81;;;5.68;55.23
59493;BME280;45497;43.996;22.876;2022-12-18T02:46:53;102394.28;;;5.70;55.34
59493;BME280;45497;43.996;22.876;2022-12-18T02:57:48;102405.31;;;5.48;55.63
59493;BME280;45497;43.996;22.876;2022-12-18T03:00:19;102404.94;;;5.40;55.43
59493;BME280;45497;43.996;22.876;2022-12-18T03:02:56;102408.22;;;5.44;55.79
59493;BME280;45497;43.996;22.876;2022-12-18T03:05:35;102413.13;;;5.50;55.70
59493;BME280;45497;43.996;22.876;2022-12-18T03:08:12;102411.41;;;5.49;55.35
59493;BME280;45497;43.996;22.876;2022-12-18T03:10:43;102414.63;;;5.40;55.86
59493;BME280;45497;43.996;22.876;2022-12-18T03:13:20;102432.94;;;5.27;56.30
59493;BME280;45497;43.996;22.876;2022-12-18T03:15:49;102437.34;;;5.26;56.44
59493;BME280;45497;43.996;22.876;2022-12-18T03:18:20;102444.59;;;5.37;55.58
59493;BME280;45497;43.996;22.876;2022-12-18T03:20:47;102444.38;;;5.40;55.71
59493;BME280;45497;43.996;22.876;2022-12-18T03:23:21;102453.41;;;5.36;55.71
59493;BME280;45497;43.996;22.876;2022-12-18T03:25:49;102449.09;;;5.49;55.78
59493;BME280;45497;43.996;22.876;2022-12-18T03:28:20;102444.69;;;5.35;56.17
59493;BME280;45497;43.996;22.876;2022-12-18T03:30:47;102446.25;;;5.52;55.39
59493;BME280;45497;43.996;22.876;2022-12-18T03:35:45;102450.88;;;5.49;55.48
59493;BME280;45497;43.996;22.876;2022-12-18T03:38:11;102449.19;;;5.33;55.73
59493;BME280;45497;43.996;22.876;2022-12-18T03:41:01;102459.81;;;5.32;55.77
59493;BME280;45497;43.996;22.876;2022-12-18T03:46:38;102468.16;;;5.24;55.40
59493;BME280;45497;43.996;22.876;2022-12-18T03:49:26;102476.66;;;4.99;55.78
59493;BME280;45497;43.996;22.876;2022-12-18T03:52:09;102474.09;;;4.97;55.69
59493;BME280;45497;43.996;22.876;2022-12-18T03:54:36;102496.09;;;5.11;54.96
59493;BME280;45497;43.996;22.876;2022-12-18T03:57:09;102489.66;;;5.31;54.42
59493;BME280;45497;43.996;22.876;2022-12-18T03:59:38;102488.25;;;5.40;54.00
59493;BME280;45497;43.996;22.876;2022-12-18T04:02:06;102497.84;;;5.41;54.18
59493;BME280;45497;43.996;22.876;2022-12-18T04:04:35;102497.66;;;5.44;54.25
59493;BME280;45497;43.996;22.876;2022-12-18T04:07:03;102501.72;;;5.49;54.11
59493;BME280;45497;43.996;22.876;2022-12-18T04:09:30;102503.84;;;5.43;54.05
59493;BME280;45497;43.996;22.876;2022-12-18T04:11:57;102501.47;;;5.24;54.36
59493;BME280;45497;43.996;22.876;2022-12-18T04:14:22;102501.13;;;5.30;53.92
59493;BME280;45497;43.996;22.876;2022-12-18T04:16:47;102494.91;;;5.31;53.92
59493;BME280;45497;43.996;22.876;2022-12-18T04:19:13;102494.22;;;5.13;53.80
59493;BME280;45497;43.996;22.876;2022-12-18T04:21:38;102491.25;;;5.19;54.28
59493;BME280;45497;43.996;22.876;2022-12-18T04:24:04;102496.53;;;5.33;53.53
59493;BME280;45497;43.996;22.876;2022-12-18T04:26:30;102498.50;;;5.44;53.91
59493;BME280;45497;43.996;22.876;2022-12-18T04:28:55;102494.09;;;5.45;53.57
59493;BME280;45497;43.996;22.876;2022-12-18T04:31:21;102499.72;;;5.39;53.55
59493;BME280;45497;43.996;22.876;2022-12-18T04:33:47;102504.06;;;5.54;53.58
59493;BME280;45497;43.996;22.876;2022-12-18T04:36:12;102507.06;;;5.48;53.39
59493;BME280;45497;43.996;22.876;2022-12-18T04:38:38;102490.97;;;5.38;53.83
59493;BME280;45497;43.996;22.876;2022-12-18T04:41:03;102497.47;;;5.47;53.95
59493;BME280;45497;43.996;22.876;2022-12-18T04:43:29;102502.38;;;5.53;53.66
59493;BME280;45497;43.996;22.876;2022-12-18T04:46:02;102503.19;;;5.39;53.32
59493;BME280;45497;43.996;22.876;2022-12-18T04:48:27;102507.88;;;5.34;53.55
59493;BME280;45497;43.996;22.876;2022-12-18T04:50:53;102518.22;;;5.37;53.80
59493;BME280;45497;43.996;22.876;2022-12-18T04:53:18;102519.31;;;5.33;53.55
59493;BME280;45497;43.996;22.876;2022-12-18T04:55:44;102525.75;;;5.43;53.03
59493;BME280;45497;43.996;22.876;2022-12-18T04:58:09;102530.63;;;5.35;53.75
59493;BME280;45497;43.996;22.876;2022-12-18T05:00:35;102538.41;;;5.36;53.21
59493;BME280;45497;43.996;22.876;2022-12-18T05:03:01;102551.34;;;5.25;53.79
59493;BME280;45497;43.996;22.876;2022-12-18T05:05:27;102549.03;;;5.05;53.55
59493;BME280;45497;43.996;22.876;2022-12-18T05:07:53;102552.84;;;5.15;54.10
59493;BME280;45497;43.996;22.876;2022-12-18T05:10:18;102550.97;;;5.17;53.54
59493;BME280;45497;43.996;22.876;2022-12-18T05:12:44;102542.53;;;5.26;53.87
59493;BME280;45497;43.996;22.876;2022-12-18T05:15:27;102540.81;;;5.25;53.59
59493;BME280;45497;43.996;22.876;2022-12-18T05:17:53;102553.78;;;5.28;53.81
59493;BME280;45497;43.996;22.876;2022-12-18T05:20:18;102552.63;;;5.18;54.17
59493;BME280;45497;43.996;22.876;2022-12-18T05:22:44;102551.78;;;5.17;54.03
59493;BME280;45497;43.996;22.876;2022-12-18T05:25:09;102559.09;;;5.12;54.50
59493;BME280;45497;43.996;22.876;2022-12-18T05:27:35;102559.09;;;5.12;54.08
59493;BME280;45497;43.996;22.876;2022-12-18T05:30:00;102573.50;;;5.21;54.08
59493;BME280;45497;43.996;22.876;2022-12-18T05:32:26;102561.94;;;5.24;53.79
59493;BME280;45497;43.996;22.876;2022-12-18T05:34:51;102582.19;;;5.38;53.76
59493;BME280;45497;43.996;22.876;2022-12-18T05:37:17;102575.88;;;5.40;54.12
59493;BME280;45497;43.996;22.876;2022-12-18T05:39:43;102575.28;;;5.21;54.27
59493;BME280;45497;43.996;22.876;2022-12-18T05:42:08;102577.16;;;5.19;54.86
59493;BME280;45497;43.996;22.876;2022-12-18T05:44:35;102579.56;;;5.38;54.44
59493;BME280;45497;43.996;22.876;2022-12-18T05:47:00;102584.91;;;5.36;54.25
59493;BME280;45497;43.996;22.876;2022-12-18T05:49:26;102586.56;;;5.53;54.33
59493;BME280;45497;43.996;22.876;2022-12-18T05:51:51;102585.84;;;5.35;54.23
59493;BME280;45497;43.996;22.876;2022-12-18T05:54:17;102592.41;;;5.28;54.60
59493;BME280;45497;43.996;22.876;2022-12-18T05:56:42;102589.84;;;5.26;54.67
59493;BME280;45497;43.996;22.876;2022-12-18T05:59:08;102587.22;;;5.26;54.58
59493;BME280;45497;43.996;22.876;2022-12-18T06:01:34;102597.28;;;5.34;54.48
59493;BME280;45497;43.996;22.876;2022-12-18T06:04:00;102597.19;;;5.35;54.78
59493;BME280;45497;43.996;22.876;2022-12-18T06:06:26;102590.56;;;5.44;54.49
59493;BME280;45497;43.996;22.876;2022-12-18T06:08:52;102590.91;;;5.38;54.25
59493;BME280;45497;43.996;22.876;2022-12-18T06:11:20;102598.75;;;5.54;53.41
59493;BME280;45497;43.996;22.876;2022-12-18T06:13:50;102594.66;;;5.64;53.69
59493;BME280;45497;43.996;22.876;2022-12-18T06:16:15;102600.91;;;5.62;53.22
59493;BME280;45497;43.996;22.876;2022-12-18T06:18:41;102608.28;;;5.71;53.46
59493;BME280;45497;43.996;22.876;2022-12-18T06:21:06;102614.75;;;5.65;53.10
59493;BME280;45497;43.996;22.876;2022-12-18T06:23:32;102607.78;;;5.64;53.54
59493;BME280;45497;43.996;22.876;2022-12-18T06:25:57;102626.50;;;5.74;53.62
59493;BME280;45497;43.996;22.876;2022-12-18T06:28:23;102640.03;;;5.68;53.62
59493;BME280;45497;43.996;22.876;2022-12-18T06:30:49;102645.69;;;5.76;53.15
59493;BME280;45497;43.996;22.876;2022-12-18T06:33:15;102648.59;;;5.71;53.47
59493;BME280;45497;43.996;22.876;2022-12-18T06:35:41;102645.00;;;5.72;53.54
59493;BME280;45497;43.996;22.876;2022-12-18T06:38:07;102648.59;;;5.71;53.27
59493;BME280;45497;43.996;22.876;2022-12-18T06:40:33;102661.66;;;5.73;53.46
59493;BME280;45497;43.996;22.876;2022-12-18T06:42:58;102657.38;;;5.86;53.97
59493;BME280;45497;43.996;22.876;2022-12-18T06:45:24;102660.28;;;5.82;53.73
59493;BME280;45497;43.996;22.876;2022-12-18T06:47:50;102652.94;;;5.87;53.98
59493;BME280;45497;43.996;22.876;2022-12-18T06:50:15;102664.88;;;5.78;54.06
59493;BME280;45497;43.996;22.876;2022-12-18T06:52:41;102680.53;;;5.96;53.25
59493;BME280;45497;43.996;22.876;2022-12-18T06:55:07;102675.19;;;5.81;53.36
59493;BME280;45497;43.996;22.876;2022-12-18T06:57:33;102682.56;;;5.90;53.14
59493;BME280;45497;43.996;22.876;2022-12-18T06:59:59;102689.44;;;5.93;53.33
59493;BME280;45497;43.996;22.876;2022-12-18T07:02:24;102696.06;;;6.00;53.18
59493;BME280;45497;43.996;22.876;2022-12-18T07:04:50;102695.47;;;5.95;53.15
59493;BME280;45497;43.996;22.876;2022-12-18T07:07:15;102705.22;;;6.09;52.84
59493;BME280;45497;43.996;22.876;2022-12-18T07:09:41;102697.50;;;5.90;52.85
59493;BME280;45497;43.996;22.876;2022-12-18T07:12:07;102701.72;;;6.08;52.59
59493;BME280;45497;43.996;22.876;2022-12-18T07:14:33;102706.13;;;6.08;52.25
59493;BME280;45497;43.996;22.876;2022-12-18T07:16:59;102716.09;;;6.03;52.36
59493;BME280;45497;43.996;22.876;2022-12-18T07:19:24;102707.19;;;6.05;52.28
59493;BME280;45497;43.996;22.876;2022-12-18T07:21:50;102708.88;;;5.90;52.65
59493;BME280;45497;43.996;22.876;2022-12-18T07:24:16;102719.94;;;5.81;52.58
59493;BME280;45497;43.996;22.876;2022-12-18T07:26:41;102713.09;;;5.79;51.95
59493;BME280;45497;43.996;22.876;2022-12-18T07:29:07;102716.31;;;5.84;51.99
59493;BME280;45497;43.996;22.876;2022-12-18T07:31:33;102709.03;;;5.73;51.74
59493;BME280;45497;43.996;22.876;2022-12-18T07:33:58;102714.00;;;5.78;51.69
59493;BME280;45497;43.996;22.876;2022-12-18T07:36:24;102729.72;;;5.79;51.16
59493;BME280;45497;43.996;22.876;2022-12-18T07:38:50;102719.56;;;5.73;51.55
59493;BME280;45497;43.996;22.876;2022-12-18T07:41:16;102735.25;;;5.74;50.97
59493;BME280;45497;43.996;22.876;2022-12-18T07:43:44;102729.88;;;5.76;51.04
59493;BME280;45497;43.996;22.876;2022-12-18T07:46:11;102725.78;;;5.86;50.40
59493;BME280;45497;43.996;22.876;2022-12-18T07:48:39;102731.31;;;5.98;50.39
59493;BME280;45497;43.996;22.876;2022-12-18T07:51:06;102731.88;;;6.03;49.71
59493;BME280;45497;43.996;22.876;2022-12-18T07:53:33;102728.06;;;6.23;49.77
59493;BME280;45497;43.996;22.876;2022-12-18T07:56:02;102740.44;;;6.06;49.46
59493;BME280;45497;43.996;22.876;2022-12-18T07:58:29;102730.78;;;6.07;49.53
59493;BME280;45497;43.996;22.876;2022-12-18T08:01:05;102738.34;;;6.27;48.84
59493;BME280;45497;43.996;22.876;2022-12-18T08:03:31;102742.84;;;6.25;48.70
59493;BME280;45497;43.996;22.876;2022-12-18T08:06:01;102739.38;;;6.25;48.52
59493;BME280;45497;43.996;22.876;2022-12-18T08:08:26;102748.22;;;6.38;48.16
59493;BME280;45497;43.996;22.876;2022-12-18T08:10:52;102766.09;;;6.47;48.62
59493;BME280;45497;43.996;22.876;2022-12-18T08:13:18;102757.56;;;6.58;48.33
59493;BME280;45497;43.996;22.876;2022-12-18T08:15:43;102764.31;;;6.48;47.74
59493;BME280;45497;43.996;22.876;2022-12-18T08:18:08;102763.41;;;6.63;47.79
59493;BME280;45497;43.996;22.876;2022-12-18T08:20:34;102775.34;;;6.69;47.55
59493;BME280;45497;43.996;22.876;2022-12-18T08:22:59;102778.56;;;6.88;47.38
59493;BME280;45497;43.996;22.876;2022-12-18T08:25:25;102767.72;;;6.64;47.61
59493;BME280;45497;43.996;22.876;2022-12-18T08:27:50;102773.84;;;6.65;46.93
59493;BME280;45497;43.996;22.876;2022-12-18T08:30:16;102775.63;;;6.79;46.74
59493;BME280;45497;43.996;22.876;2022-12-18T08:32:41;102769.59;;;6.77;46.77
59493;BME280;45497;43.996;22.876;2022-12-18T08:35:07;102771.97;;;6.53;46.59
59493;BME280;45497;43.996;22.876;2022-12-18T08:37:33;102769.59;;;6.48;46.36
59493;BME280;45497;43.996;22.876;2022-12-18T08:39:59;102773.38;;;6.13;46.28
59493;BME280;45497;43.996;22.876;2022-12-18T08:42:25;102779.56;;;6.28;46.74
59493;BME280;45497;43.996;22.876;2022-12-18T08:45:09;102759.72;;;6.66;46.34
59493;BME280;45497;43.996;22.876;2022-12-18T08:47:35;102773.38;;;7.01;46.37
59493;BME280;45497;43.996;22.876;2022-12-18T08:50:00;102761.03;;;6.73;45.25
59493;BME280;45497;43.996;22.876;2022-12-18T08:52:26;102776.84;;;6.59;45.08
59493;BME280;45497;43.996;22.876;2022-12-18T08:54:51;102777.72;;;6.88;45.34
59493;BME280;45497;43.996;22.876;2022-12-18T08:57:17;102767.84;;;6.77;44.58
59493;BME280;45497;43.996;22.876;2022-12-18T08:59:42;102765.28;;;6.76;44.47
59493;BME280;45497;43.996;22.876;2022-12-18T09:02:11;102769.69;;;6.89;44.78
59493;BME280;45497;43.996;22.876;2022-12-18T09:04:36;102761.78;;;6.89;44.86
59493;BME280;45497;43.996;22.876;2022-12-18T09:07:02;102769.41;;;7.08;45.10
59493;BME280;45497;43.996;22.876;2022-12-18T09:09:27;102763.47;;;7.05;44.90
59493;BME280;45497;43.996;22.876;2022-12-18T09:11:53;102760.25;;;7.14;45.53
59493;BME280;45497;43.996;22.876;2022-12-18T09:14:18;102751.16;;;6.77;45.12
59493;BME280;45497;43.996;22.876;2022-12-18T09:16:44;102744.56;;;6.84;45.04
59493;BME280;45497;43.996;22.876;2022-12-18T09:19:10;102748.59;;;6.61;45.25
59493;BME280;45497;43.996;22.876;2022-12-18T09:21:35;102741.56;;;6.90;44.81
59493;BME280;45497;43.996;22.876;2022-12-18T09:24:04;102740.91;;;6.72;44.54
59493;BME280;45497;43.996;22.876;2022-12-18T09:26:30;102745.97;;;6.75;44.30
59493;BME280;45497;43.996;22.876;2022-12-18T09:28:55;102737.22;;;6.75;44.24
59493;BME280;45497;43.996;22.876;2022-12-18T09:31:22;102750.78;;;6.97;44.10
59493;BME280;45497;43.996;22.876;2022-12-18T09:33:48;102749.75;;;6.71;44.42
59493;BME280;45497;43.996;22.876;2022-12-18T09:36:16;102752.28;;;6.87;45.14
59493;BME280;45497;43.996;22.876;2022-12-18T09:38:42;102742.50;;;6.75;44.98
59493;BME280;45497;43.996;22.876;2022-12-18T09:43:52;102752.69;;;6.81;43.93
59493;BME280;45497;43.996;22.876;2022-12-18T09:46:34;102758.03;;;6.50;44.41
59493;BME280;45497;43.996;22.876;2022-12-18T09:49:06;102749.75;;;6.71;44.07
59493;BME280;45497;43.996;22.876;2022-12-18T09:51:47;102755.59;;;6.62;44.58
59493;BME280;45497;43.996;22.876;2022-12-18T09:54:20;102752.38;;;6.57;45.08
59493;BME280;45497;43.996;22.876;2022-12-18T09:56:46;102746.25;;;6.42;44.97
59493;BME280;45497;43.996;22.876;2022-12-18T09:59:25;102743.81;;;6.82;44.82
59493;BME280;45497;43.996;22.876;2022-12-18T10:01:52;102737.41;;;6.72;43.89
59493;BME280;45497;43.996;22.876;2022-12-18T10:04:18;102741.94;;;6.69;44.51
59493;BME280;45497;43.996;22.876;2022-12-18T10:20:45;102748.59;;;7.45;43.17
59493;BME280;45497;43.996;22.876;2022-12-18T10:23:37;102753.31;;;6.99;42.45
59493;BME280;45497;43.996;22.876;2022-12-18T10:26:09;102752.44;;;6.98;42.56
59493;BME280;45497;43.996;22.876;2022-12-18T10:28:37;102763.09;;;6.97;42.12
59493;BME280;45497;43.996;22.876;2022-12-18T10:31:17;102756.97;;;7.11;42.15
59493;BME280;45497;43.996;22.876;2022-12-18T10:33:43;102763.94;;;7.12;41.37
59493;BME280;45497;43.996;22.876;2022-12-18T10:36:09;102769.41;;;6.94;42.20
59493;BME280;45497;43.996;22.876;2022-12-18T10:38:35;102766.97;;;6.77;41.93
59493;BME280;45497;43.996;22.876;2022-12-18T10:41:06;102751.06;;;6.93;41.72
59493;BME280;45497;43.996;22.876;2022-12-18T10:43:38;102766.13;;;6.76;41.81
59493;BME280;45497;43.996;22.876;2022-12-18T10:51:07;102785.06;;;7.39;41.59
59493;BME280;45497;43.996;22.876;2022-12-18T10:53:35;102783.97;;;7.28;42.35
59493;BME280;45497;43.996;22.876;2022-12-18T10:56:03;102781.44;;;7.13;42.78
59493;BME280;45497;43.996;22.876;2022-12-18T10:58:35;102797.16;;;7.14;41.82
59493;BME280;45497;43.996;22.876;2022-12-18T11:01:15;102785.22;;;7.08;42.01
59493;BME280;45497;43.996;22.876;2022-12-18T11:03:45;102789.41;;;7.25;41.74
59493;BME280;45497;43.996;22.876;2022-12-18T11:06:18;102781.38;;;7.41;42.00
59493;BME280;45497;43.996;22.876;2022-12-18T11:09:10;102788.06;;;7.47;41.41
59493;BME280;45497;43.996;22.876;2022-12-18T11:11:48;102787.50;;;7.56;41.35
59493;BME280;45497;43.996;22.876;2022-12-18T11:14:20;102794.84;;;7.78;41.55
59493;BME280;45497;43.996;22.876;2022-12-18T11:16:47;102783.91;;;7.97;41.51
59493;BME280;45497;43.996;22.876;2022-12-18T11:19:36;102781.50;;;7.67;40.90
59493;BME280;45497;43.996;22.876;2022-12-18T11:22:19;102788.97;;;7.60;40.33
59493;BME280;45497;43.996;22.876;2022-12-18T11:24:53;102782.16;;;7.71;40.39
59493;BME280;45497;43.996;22.876;2022-12-18T11:27:18;102781.25;;;7.97;40.50
59493;BME280;45497;43.996;22.876;2022-12-18T11:29:44;102785.91;;;7.94;41.08
59493;BME280;45497;43.996;22.876;2022-12-18T11:32:37;102756.69;;;7.70;39.85
59493;BME280;45497;43.996;22.876;2022-12-18T11:43:32;102780.84;;;7.91;39.92
59493;BME280;45497;43.996;22.876;2022-12-18T11:46:05;102786.28;;;7.75;39.52
59493;BME280;45497;43.996;22.876;2022-12-18T11:48:43;102791.09;;;7.95;39.61
59493;BME280;45497;43.996;22.876;2022-12-18T11:51:15;102785.81;;;7.95;38.61
59493;BME280;45497;43.996;22.876;2022-12-18T11:53:43;102794.00;;;8.18;38.88
59493;BME280;45497;43.996;22.876;2022-12-18T11:56:43;102785.72;;;8.10;38.70
59493;BME280;45497;43.996;22.876;2022-12-18T11:59:52;102788.34;;;7.97;38.38
59493;BME280;45497;43.996;22.876;2022-12-18T12:18:55;102802.75;;;8.06;40.64
59493;BME280;45497;43.996;22.876;2022-12-18T12:30:21;102807.00;;;7.54;41.97
59493;BME280;45497;43.996;22.876;2022-12-18T12:33:02;102809.63;;;7.54;41.35
59493;BME280;45497;43.996;22.876;2022-12-18T12:38:16;102825.91;;;7.04;42.42
59493;BME280;45497;43.996;22.876;2022-12-18T12:40:52;102823.38;;;6.74;42.36
59493;BME280;45497;43.996;22.876;2022-12-18T12:43:21;102834.19;;;6.84;43.09
59493;BME280;45497;43.996;22.876;2022-12-18T12:45:55;102843.47;;;6.46;43.83
59493;BME280;45497;43.996;22.876;2022-12-18T12:48:52;102828.75;;;6.42;44.38
59493;BME280;45497;43.996;22.876;2022-12-18T12:51:24;102820.81;;;6.73;43.87
59493;BME280;45497;43.996;22.876;2022-12-18T12:53:51;102834.16;;;6.55;43.75
59493;BME280;45497;43.996;22.876;2022-12-18T12:56:20;102842.13;;;6.39;44.62
59493;BME280;45497;43.996;22.876;2022-12-18T12:59:13;102840.00;;;6.60;44.26
59493;BME280;45497;43.996;22.876;2022-12-18T13:02:14;102872.16;;;6.51;43.26
59493;BME280;45497;43.996;22.876;2022-12-18T13:20:37;102895.25;;;6.16;44.86
59493;BME280;45497;43.996;22.876;2022-12-18T13:30:59;102898.16;;;5.95;44.93
59493;BME280;45497;43.996;22.876;2022-12-18T13:38:37;102910.03;;;5.70;44.87
59493;BME280;45497;43.996;22.876;2022-12-18T13:41:23;102919.63;;;5.55;45.56
59493;BME280;45497;43.996;22.876;2022-12-18T13:43:50;102913.91;;;5.47;45.52
59493;BME280;45497;43.996;22.876;2022-12-18T13:46:19;102911.63;;;5.41;46.02
59493;BME280;45497;43.996;22.876;2022-12-18T13:51:24;102894.47;;;5.34;46.35
59493;BME280;45497;43.996;22.876;2022-12-18T13:53:55;102901.19;;;5.55;46.22
59493;BME280;45497;43.996;22.876;2022-12-18T13:56:25;102915.13;;;5.58;46.03
59493;BME280;45497;43.996;22.876;2022-12-18T13:59:32;102912.53;;;5.40;46.72
59493;BME280;45497;43.996;22.876;2022-12-18T14:02:01;102914.66;;;5.33;46.93
59493;BME280;45497;43.996;22.876;2022-12-18T14:04:32;102916.47;;;5.15;46.78
59493;BME280;45497;43.996;22.876;2022-12-18T14:07:21;102936.53;;;5.01;47.22
59493;BME280;45497;43.996;22.876;2022-12-18T14:09:53;102929.56;;;4.82;47.58
59493;BME280;45497;43.996;22.876;2022-12-18T14:12:22;102937.78;;;4.93;47.51
59493;BME280;45497;43.996;22.876;2022-12-18T14:17:57;102953.13;;;4.66;47.97
59493;BME280;45497;43.996;22.876;2022-12-18T14:20:25;102944.03;;;4.56;47.92
59493;BME280;45497;43.996;22.876;2022-12-18T14:22:51;102955.50;;;4.36;48.33
59493;BME280;45497;43.996;22.876;2022-12-18T14:25:20;102953.50;;;4.58;47.39
59493;BME280;45497;43.996;22.876;2022-12-18T14:30:31;102957.94;;;4.75;47.23
59493;BME280;45497;43.996;22.876;2022-12-18T14:33:08;102957.41;;;4.86;47.10
59493;BME280;45497;43.996;22.876;2022-12-18T14:35:37;102970.53;;;4.69;47.58
59493;BME280;45497;43.996;22.876;2022-12-18T14:38:36;102973.06;;;4.53;48.23
59493;BME280;45497;43.996;22.876;2022-12-18T14:41:10;102979.09;;;4.72;47.95
59493;BME280;45497;43.996;22.876;2022-12-18T14:43:39;102981.81;;;4.88;47.86
59493;BME280;45497;43.996;22.876;2022-12-18T14:46:06;102990.34;;;4.93;47.41
59493;BME280;45497;43.996;22.876;2022-12-18T14:48:50;102985.81;;;4.60;47.87
59493;BME280;45497;43.996;22.876;2022-12-18T14:51:19;102976.50;;;4.36;48.53
59493;BME280;45497;43.996;22.876;2022-12-18T14:53:48;102980.88;;;4.54;48.43
59493;BME280;45497;43.996;22.876;2022-12-18T14:56:15;102991.50;;;4.51;48.46
59493;BME280;45497;43.996;22.876;2022-12-18T15:01:38;103010.22;;;4.26;49.37
59493;BME280;45497;43.996;22.876;2022-12-18T15:04:25;103007.56;;;4.45;48.84
59493;BME280;45497;43.996;22.876;2022-12-18T15:07:21;103007.84;;;4.39;48.72
59493;BME280;45497;43.996;22.876;2022-12-18T15:10:26;103005.09;;;4.42;48.93